sensor_id;sensor_type;location;lat;lon;timestamp;temperature;humidity
51811;DHT22;52468;40.116;18.296;2024-02-21T00:00:40;10.60;83.30
51811;DHT22;52468;40.116;18.296;2024-02-21T00:03:09;10.60;83.30
51811;DHT22;52468;40.116;18.296;2024-02-21T00:05:43;10.70;83.20
51811;DHT22;52468;40.116;18.296;2024-02-21T00:08:11;10.70;83.10
51811;DHT22;52468;40.116;18.296;2024-02-21T00:10:39;10.60;83.10
51811;DHT22;52468;40.116;18.296;2024-02-21T00:13:07;10.60;83.20
51811;DHT22;52468;40.116;18.296;2024-02-21T00:15:34;10.60;83.10
51811;DHT22;52468;40.116;18.296;2024-02-21T00:18:03;10.60;83.10
51811;DHT22;52468;40.116;18.296;2024-02-21T00:20:31;10.60;83.10
51811;DHT22;52468;40.116;18.296;2024-02-21T00:22:58;10.60;82.60
51811;DHT22;52468;40.116;18.296;2024-02-21T00:25:26;10.50;82.30
51811;DHT22;52468;40.116;18.296;2024-02-21T00:27:55;10.40;82.10
51811;DHT22;52468;40.116;18.296;2024-02-21T00:30:22;10.30;82.10
51811;DHT22;52468;40.116;18.296;2024-02-21T00:32:50;10.20;82.00
51811;DHT22;52468;40.116;18.296;2024-02-21T00:35:18;10.00;82.20
51811;DHT22;52468;40.116;18.296;2024-02-21T00:37:46;9.90;82.50
51811;DHT22;52468;40.116;18.296;2024-02-21T00:40:14;9.80;82.60
51811;DHT22;52468;40.116;18.296;2024-02-21T00:42:47;9.80;82.60
51811;DHT22;52468;40.116;18.296;2024-02-21T00:45:15;9.70;82.60
51811;DHT22;52468;40.116;18.296;2024-02-21T00:47:43;9.70;82.70
51811;DHT22;52468;40.116;18.296;2024-02-21T00:50:11;9.60;82.80
51811;DHT22;52468;40.116;18.296;2024-02-21T00:52:39;9.60;82.70
51811;DHT22;52468;40.116;18.296;2024-02-21T00:55:07;9.50;82.90
51811;DHT22;52468;40.116;18.296;2024-02-21T00:57:36;9.50;82.90
51811;DHT22;52468;40.116;18.296;2024-02-21T01:00:05;9.50;83.00
51811;DHT22;52468;40.116;18.296;2024-02-21T01:02:33;9.50;83.10
51811;DHT22;52468;40.116;18.296;2024-02-21T01:05:02;9.50;82.90
51811;DHT22;52468;40.116;18.296;2024-02-21T01:07:30;9.50;82.90
51811;DHT22;52468;40.116;18.296;2024-02-21T01:09:58;9.50;82.80
51811;DHT22;52468;40.116;18.296;2024-02-21T01:12:26;9.40;82.70
51811;DHT22;52468;40.116;18.296;2024-02-21T01:14:54;9.40;82.60
51811;DHT22;52468;40.116;18.296;2024-02-21T01:17:22;9.40;82.80
51811;DHT22;52468;40.116;18.296;2024-02-21T01:19:49;9.40;82.90
51811;DHT22;52468;40.116;18.296;2024-02-21T01:22:17;9.40;82.80
51811;DHT22;52468;40.116;18.296;2024-02-21T01:24:45;9.30;82.90
51811;DHT22;52468;40.116;18.296;2024-02-21T01:27:13;9.30;83.00
51811;DHT22;52468;40.116;18.296;2024-02-21T01:29:41;9.30;82.90
51811;DHT22;52468;40.116;18.296;2024-02-21T01:32:09;9.30;82.90
51811;DHT22;52468;40.116;18.296;2024-02-21T01:34:37;9.30;82.70
51811;DHT22;52468;40.116;18.296;2024-02-21T01:37:05;9.20;82.70
51811;DHT22;52468;40.116;18.296;2024-02-21T01:39:34;9.10;82.70
51811;DHT22;52468;40.116;18.296;2024-02-21T01:42:03;9.10;82.80
51811;DHT22;52468;40.116;18.296;2024-02-21T01:44:31;9.10;82.80
51811;DHT22;52468;40.116;18.296;2024-02-21T01:46:59;9.10;82.90
51811;DHT22;52468;40.116;18.296;2024-02-21T01:49:27;9.10;82.90
51811;DHT22;52468;40.116;18.296;2024-02-21T01:51:55;9.00;83.00
51811;DHT22;52468;40.116;18.296;2024-02-21T01:54:25;9.00;82.90
51811;DHT22;52468;40.116;18.296;2024-02-21T01:56:56;9.00;82.90
51811;DHT22;52468;40.116;18.296;2024-02-21T01:59:24;9.00;82.90
51811;DHT22;52468;40.116;18.296;2024-02-21T02:01:54;9.00;82.90
51811;DHT22;52468;40.116;18.296;2024-02-21T02:04:23;9.00;83.10
51811;DHT22;52468;40.116;18.296;2024-02-21T02:06:54;9.00;83.00
51811;DHT22;52468;40.116;18.296;2024-02-21T02:09:24;9.00;82.90
51811;DHT22;52468;40.116;18.296;2024-02-21T02:11:52;9.00;82.80
51811;DHT22;52468;40.116;18.296;2024-02-21T02:14:20;8.90;82.70
51811;DHT22;52468;40.116;18.296;2024-02-21T02:16:47;8.90;82.70
51811;DHT22;52468;40.116;18.296;2024-02-21T02:31:49;9.00;81.30
51811;DHT22;52468;40.116;18.296;2024-02-21T02:34:17;8.60;81.80
51811;DHT22;52468;40.116;18.296;2024-02-21T02:36:45;8.40;82.40
51811;DHT22;52468;40.116;18.296;2024-02-21T02:39:14;8.30;82.60
51811;DHT22;52468;40.116;18.296;2024-02-21T02:41:41;8.30;82.70
51811;DHT22;52468;40.116;18.296;2024-02-21T02:44:10;8.20;82.80
51811;DHT22;52468;40.116;18.296;2024-02-21T02:46:40;8.20;82.70
51811;DHT22;52468;40.116;18.296;2024-02-21T02:49:09;8.20;82.60
51811;DHT22;52468;40.116;18.296;2024-02-21T02:51:40;8.10;82.60
51811;DHT22;52468;40.116;18.296;2024-02-21T02:54:08;8.10;82.50
51811;DHT22;52468;40.116;18.296;2024-02-21T02:56:36;8.10;82.40
51811;DHT22;52468;40.116;18.296;2024-02-21T02:59:04;8.10;82.40
51811;DHT22;52468;40.116;18.296;2024-02-21T03:01:34;8.00;82.50
51811;DHT22;52468;40.116;18.296;2024-02-21T03:04:03;8.00;82.70
51811;DHT22;52468;40.116;18.296;2024-02-21T03:06:30;8.00;82.80
51811;DHT22;52468;40.116;18.296;2024-02-21T03:08:58;8.10;82.80
51811;DHT22;52468;40.116;18.296;2024-02-21T03:11:27;8.10;82.70
51811;DHT22;52468;40.116;18.296;2024-02-21T03:13:56;8.10;82.60
51811;DHT22;52468;40.116;18.296;2024-02-21T03:16:25;8.10;82.40
51811;DHT22;52468;40.116;18.296;2024-02-21T03:18:53;8.10;82.50
51811;DHT22;52468;40.116;18.296;2024-02-21T03:21:21;8.20;82.60
51811;DHT22;52468;40.116;18.296;2024-02-21T03:23:48;8.20;82.90
51811;DHT22;52468;40.116;18.296;2024-02-21T03:26:16;8.10;82.90
51811;DHT22;52468;40.116;18.296;2024-02-21T03:28:45;8.10;83.00
51811;DHT22;52468;40.116;18.296;2024-02-21T03:31:16;8.10;83.00
51811;DHT22;52468;40.116;18.296;2024-02-21T03:33:44;8.10;83.10
51811;DHT22;52468;40.116;18.296;2024-02-21T03:36:15;8.10;83.10
51811;DHT22;52468;40.116;18.296;2024-02-21T03:38:45;8.10;82.80
51811;DHT22;52468;40.116;18.296;2024-02-21T03:41:13;8.10;82.70
51811;DHT22;52468;40.116;18.296;2024-02-21T03:43:41;8.10;82.60
51811;DHT22;52468;40.116;18.296;2024-02-21T03:46:09;8.10;82.50
51811;DHT22;52468;40.116;18.296;2024-02-21T03:48:37;8.00;82.60
51811;DHT22;52468;40.116;18.296;2024-02-21T03:51:05;8.00;82.80
51811;DHT22;52468;40.116;18.296;2024-02-21T03:53:33;8.00;82.90
51811;DHT22;52468;40.116;18.296;2024-02-21T03:56:01;8.00;83.10
51811;DHT22;52468;40.116;18.296;2024-02-21T03:58:31;7.90;83.00
51811;DHT22;52468;40.116;18.296;2024-02-21T04:01:03;7.90;82.80
51811;DHT22;52468;40.116;18.296;2024-02-21T04:03:31;7.90;82.70
51811;DHT22;52468;40.116;18.296;2024-02-21T04:05:59;7.90;82.50
51811;DHT22;52468;40.116;18.296;2024-02-21T04:08:28;7.80;82.40
51811;DHT22;52468;40.116;18.296;2024-02-21T04:10:56;7.80;82.30
51811;DHT22;52468;40.116;18.296;2024-02-21T04:13:23;7.70;82.30
51811;DHT22;52468;40.116;18.296;2024-02-21T04:15:51;7.60;82.40
51811;DHT22;52468;40.116;18.296;2024-02-21T04:18:19;7.60;82.40
51811;DHT22;52468;40.116;18.296;2024-02-21T04:20:47;7.50;82.50
51811;DHT22;52468;40.116;18.296;2024-02-21T04:23:15;7.50;82.70
51811;DHT22;52468;40.116;18.296;2024-02-21T04:25:43;7.50;82.80
51811;DHT22;52468;40.116;18.296;2024-02-21T04:28:11;7.50;82.90
51811;DHT22;52468;40.116;18.296;2024-02-21T04:30:39;7.50;83.00
51811;DHT22;52468;40.116;18.296;2024-02-21T04:33:07;7.50;83.00
51811;DHT22;52468;40.116;18.296;2024-02-21T04:35:36;7.50;83.00
51811;DHT22;52468;40.116;18.296;2024-02-21T04:38:04;7.50;82.90
51811;DHT22;52468;40.116;18.296;2024-02-21T04:40:32;7.50;83.00
51811;DHT22;52468;40.116;18.296;2024-02-21T04:43:00;7.50;83.10
51811;DHT22;52468;40.116;18.296;2024-02-21T04:45:28;7.50;83.10
51811;DHT22;52468;40.116;18.296;2024-02-21T04:47:56;7.60;82.80
51811;DHT22;52468;40.116;18.296;2024-02-21T04:50:24;7.50;82.40
51811;DHT22;52468;40.116;18.296;2024-02-21T04:52:52;7.60;82.20
51811;DHT22;52468;40.116;18.296;2024-02-21T04:55:20;7.50;82.10
51811;DHT22;52468;40.116;18.296;2024-02-21T04:57:48;7.50;82.10
51811;DHT22;52468;40.116;18.296;2024-02-21T05:00:16;7.50;82.00
51811;DHT22;52468;40.116;18.296;2024-02-21T05:02:44;7.40;82.00
51811;DHT22;52468;40.116;18.296;2024-02-21T05:05:12;7.20;82.60
51811;DHT22;52468;40.116;18.296;2024-02-21T05:07:41;7.20;83.00
51811;DHT22;52468;40.116;18.296;2024-02-21T05:10:09;7.30;83.60
51811;DHT22;52468;40.116;18.296;2024-02-21T05:12:37;7.30;83.70
51811;DHT22;52468;40.116;18.296;2024-02-21T05:15:05;7.50;83.30
51811;DHT22;52468;40.116;18.296;2024-02-21T05:17:33;7.50;82.70
51811;DHT22;52468;40.116;18.296;2024-02-21T05:20:02;7.40;82.70
51811;DHT22;52468;40.116;18.296;2024-02-21T05:22:31;7.40;82.90
51811;DHT22;52468;40.116;18.296;2024-02-21T05:24:59;7.40;83.00
51811;DHT22;52468;40.116;18.296;2024-02-21T05:27:27;7.40;83.20
51811;DHT22;52468;40.116;18.296;2024-02-21T05:29:55;7.40;83.10
51811;DHT22;52468;40.116;18.296;2024-02-21T05:32:23;7.50;82.60
51811;DHT22;52468;40.116;18.296;2024-02-21T05:34:50;7.50;82.80
51811;DHT22;52468;40.116;18.296;2024-02-21T05:37:19;7.50;82.80
51811;DHT22;52468;40.116;18.296;2024-02-21T05:39:46;7.50;82.40
51811;DHT22;52468;40.116;18.296;2024-02-21T05:42:14;7.50;82.30
51811;DHT22;52468;40.116;18.296;2024-02-21T05:44:42;7.50;82.20
51811;DHT22;52468;40.116;18.296;2024-02-21T05:47:10;7.50;82.20
51811;DHT22;52468;40.116;18.296;2024-02-21T05:49:39;7.50;82.20
51811;DHT22;52468;40.116;18.296;2024-02-21T05:52:08;7.50;82.20
51811;DHT22;52468;40.116;18.296;2024-02-21T05:54:38;7.40;82.30
51811;DHT22;52468;40.116;18.296;2024-02-21T05:57:07;7.30;82.50
51811;DHT22;52468;40.116;18.296;2024-02-21T05:59:38;7.40;82.60
51811;DHT22;52468;40.116;18.296;2024-02-21T06:02:07;7.40;82.80
51811;DHT22;52468;40.116;18.296;2024-02-21T06:04:35;7.50;82.70
51811;DHT22;52468;40.116;18.296;2024-02-21T06:07:03;7.40;82.30
51811;DHT22;52468;40.116;18.296;2024-02-21T06:09:31;7.40;82.70
51811;DHT22;52468;40.116;18.296;2024-02-21T06:11:59;7.40;82.90
51811;DHT22;52468;40.116;18.296;2024-02-21T06:14:27;7.50;83.80
51811;DHT22;52468;40.116;18.296;2024-02-21T06:16:55;7.80;83.90
51811;DHT22;52468;40.116;18.296;2024-02-21T06:19:23;8.00;84.20
51811;DHT22;52468;40.116;18.296;2024-02-21T06:21:51;8.30;84.10
51811;DHT22;52468;40.116;18.296;2024-02-21T06:24:19;8.60;83.90
51811;DHT22;52468;40.116;18.296;2024-02-21T06:26:47;9.00;83.60
51811;DHT22;52468;40.116;18.296;2024-02-21T06:29:15;9.30;83.40
51811;DHT22;52468;40.116;18.296;2024-02-21T06:31:43;9.60;83.10
51811;DHT22;52468;40.116;18.296;2024-02-21T06:34:11;9.90;82.90
51811;DHT22;52468;40.116;18.296;2024-02-21T06:36:39;10.10;82.60
51811;DHT22;52468;40.116;18.296;2024-02-21T06:39:06;10.30;82.30
51811;DHT22;52468;40.116;18.296;2024-02-21T06:41:35;10.50;82.30
51811;DHT22;52468;40.116;18.296;2024-02-21T06:44:03;10.70;82.30
51811;DHT22;52468;40.116;18.296;2024-02-21T06:46:31;10.90;82.20
51811;DHT22;52468;40.116;18.296;2024-02-21T06:49:02;11.10;82.20
51811;DHT22;52468;40.116;18.296;2024-02-21T06:51:31;11.30;81.90
51811;DHT22;52468;40.116;18.296;2024-02-21T06:53:59;11.50;82.00
51811;DHT22;52468;40.116;18.296;2024-02-21T06:56:27;11.70;81.80
51811;DHT22;52468;40.116;18.296;2024-02-21T06:58:57;11.80;81.60
51811;DHT22;52468;40.116;18.296;2024-02-21T07:01:25;12.00;81.50
51811;DHT22;52468;40.116;18.296;2024-02-21T07:03:52;12.10;81.40
51811;DHT22;52468;40.116;18.296;2024-02-21T07:06:20;12.30;81.60
51811;DHT22;52468;40.116;18.296;2024-02-21T07:08:48;12.40;81.40
51811;DHT22;52468;40.116;18.296;2024-02-21T07:11:16;12.50;81.30
51811;DHT22;52468;40.116;18.296;2024-02-21T07:13:44;12.60;81.20
51811;DHT22;52468;40.116;18.296;2024-02-21T07:16:12;12.80;81.40
51811;DHT22;52468;40.116;18.296;2024-02-21T07:18:40;13.00;81.50
51811;DHT22;52468;40.116;18.296;2024-02-21T07:21:08;13.10;81.20
51811;DHT22;52468;40.116;18.296;2024-02-21T07:23:36;13.20;80.80
51811;DHT22;52468;40.116;18.296;2024-02-21T07:26:04;13.20;80.50
51811;DHT22;52468;40.116;18.296;2024-02-21T07:28:32;13.40;80.90
51811;DHT22;52468;40.116;18.296;2024-02-21T07:31:00;13.60;81.00
51811;DHT22;52468;40.116;18.296;2024-02-21T07:33:28;13.80;81.10
51811;DHT22;52468;40.116;18.296;2024-02-21T07:35:56;13.90;80.20
51811;DHT22;52468;40.116;18.296;2024-02-21T07:38:24;14.00;80.40
51811;DHT22;52468;40.116;18.296;2024-02-21T07:40:52;14.20;80.80
51811;DHT22;52468;40.116;18.296;2024-02-21T07:43:20;14.40;81.10
51811;DHT22;52468;40.116;18.296;2024-02-21T07:45:50;14.50;80.70
51811;DHT22;52468;40.116;18.296;2024-02-21T07:48:17;14.70;80.90
51811;DHT22;52468;40.116;18.296;2024-02-21T07:50:46;14.80;80.90
51811;DHT22;52468;40.116;18.296;2024-02-21T07:53:15;14.90;80.90
51811;DHT22;52468;40.116;18.296;2024-02-21T07:55:43;15.00;80.60
51811;DHT22;52468;40.116;18.296;2024-02-21T07:58:11;15.20;80.90
51811;DHT22;52468;40.116;18.296;2024-02-21T08:00:39;15.40;81.10
51811;DHT22;52468;40.116;18.296;2024-02-21T08:03:07;15.50;80.50
51811;DHT22;52468;40.116;18.296;2024-02-21T08:05:35;15.60;79.50
51811;DHT22;52468;40.116;18.296;2024-02-21T08:08:03;15.60;80.00
51811;DHT22;52468;40.116;18.296;2024-02-21T08:10:32;15.70;80.40
51811;DHT22;52468;40.116;18.296;2024-02-21T08:13:00;15.80;79.50
51811;DHT22;52468;40.116;18.296;2024-02-21T08:15:27;15.90;80.30
51811;DHT22;52468;40.116;18.296;2024-02-21T08:17:58;16.00;80.50
51811;DHT22;52468;40.116;18.296;2024-02-21T08:20:29;16.00;79.70
51811;DHT22;52468;40.116;18.296;2024-02-21T08:22:56;16.10;79.80
51811;DHT22;52468;40.116;18.296;2024-02-21T08:25:24;16.30;79.30
51811;DHT22;52468;40.116;18.296;2024-02-21T08:27:57;16.30;78.30
51811;DHT22;52468;40.116;18.296;2024-02-21T08:30:25;16.40;77.70
51811;DHT22;52468;40.116;18.296;2024-02-21T08:32:53;16.50;79.00
51811;DHT22;52468;40.116;18.296;2024-02-21T08:35:22;16.50;78.30
51811;DHT22;52468;40.116;18.296;2024-02-21T08:37:50;16.50;77.70
51811;DHT22;52468;40.116;18.296;2024-02-21T08:40:18;16.60;78.90
51811;DHT22;52468;40.116;18.296;2024-02-21T08:42:48;16.70;75.90
51811;DHT22;52468;40.116;18.296;2024-02-21T08:45:17;16.70;77.80
51811;DHT22;52468;40.116;18.296;2024-02-21T08:47:45;16.80;79.30
51811;DHT22;52468;40.116;18.296;2024-02-21T08:50:13;16.90;78.60
51811;DHT22;52468;40.116;18.296;2024-02-21T08:52:42;17.00;77.70
51811;DHT22;52468;40.116;18.296;2024-02-21T08:55:10;17.40;79.20
51811;DHT22;52468;40.116;18.296;2024-02-21T08:57:38;17.80;76.10
51811;DHT22;52468;40.116;18.296;2024-02-21T09:00:06;18.10;76.10
51811;DHT22;52468;40.116;18.296;2024-02-21T09:02:40;18.10;71.60
51811;DHT22;52468;40.116;18.296;2024-02-21T09:05:11;17.80;72.10
51811;DHT22;52468;40.116;18.296;2024-02-21T09:07:39;17.60;72.10
51811;DHT22;52468;40.116;18.296;2024-02-21T09:10:07;17.50;71.50
51811;DHT22;52468;40.116;18.296;2024-02-21T09:12:35;17.30;74.30
51811;DHT22;52468;40.116;18.296;2024-02-21T09:15:03;17.10;73.70
51811;DHT22;52468;40.116;18.296;2024-02-21T09:17:31;17.00;73.90
51811;DHT22;52468;40.116;18.296;2024-02-21T09:19:59;16.80;74.70
51811;DHT22;52468;40.116;18.296;2024-02-21T09:22:30;16.80;75.10
51811;DHT22;52468;40.116;18.296;2024-02-21T09:25:01;16.80;76.90
51811;DHT22;52468;40.116;18.296;2024-02-21T09:27:31;17.00;75.40
51811;DHT22;52468;40.116;18.296;2024-02-21T09:29:59;17.50;75.20
51811;DHT22;52468;40.116;18.296;2024-02-21T09:32:27;17.70;74.70
51811;DHT22;52468;40.116;18.296;2024-02-21T09:34:55;18.10;74.30
51811;DHT22;52468;40.116;18.296;2024-02-21T09:37:24;18.10;69.80
51811;DHT22;52468;40.116;18.296;2024-02-21T09:39:52;18.60;70.40
51811;DHT22;52468;40.116;18.296;2024-02-21T09:42:21;19.00;66.70
51811;DHT22;52468;40.116;18.296;2024-02-21T09:44:51;19.10;72.30
51811;DHT22;52468;40.116;18.296;2024-02-21T09:47:24;19.30;69.90
51811;DHT22;52468;40.116;18.296;2024-02-21T09:49:52;19.70;70.60
51811;DHT22;52468;40.116;18.296;2024-02-21T09:52:20;19.60;65.00
51811;DHT22;52468;40.116;18.296;2024-02-21T09:54:49;19.20;62.10
51811;DHT22;52468;40.116;18.296;2024-02-21T09:57:20;19.00;62.50
51811;DHT22;52468;40.116;18.296;2024-02-21T09:59:51;18.60;61.50
51811;DHT22;52468;40.116;18.296;2024-02-21T10:02:19;18.40;62.20
51811;DHT22;52468;40.116;18.296;2024-02-21T10:04:47;18.10;61.50
51811;DHT22;52468;40.116;18.296;2024-02-21T10:07:15;17.80;62.30
51811;DHT22;52468;40.116;18.296;2024-02-21T10:09:43;17.50;62.90
51811;DHT22;52468;40.116;18.296;2024-02-21T10:12:15;17.30;63.60
51811;DHT22;52468;40.116;18.296;2024-02-21T10:14:46;17.40;63.60
51811;DHT22;52468;40.116;18.296;2024-02-21T10:17:17;17.30;63.20
51811;DHT22;52468;40.116;18.296;2024-02-21T10:19:47;17.30;62.80
51811;DHT22;52468;40.116;18.296;2024-02-21T10:22:17;17.30;60.60
51811;DHT22;52468;40.116;18.296;2024-02-21T10:24:45;17.40;61.20
51811;DHT22;52468;40.116;18.296;2024-02-21T10:27:12;17.50;59.90
51811;DHT22;52468;40.116;18.296;2024-02-21T10:29:41;17.40;59.90
51811;DHT22;52468;40.116;18.296;2024-02-21T10:32:13;17.40;59.50
51811;DHT22;52468;40.116;18.296;2024-02-21T10:34:42;17.40;59.50
51811;DHT22;52468;40.116;18.296;2024-02-21T10:37:11;17.60;58.80
51811;DHT22;52468;40.116;18.296;2024-02-21T10:39:40;17.90;58.70
51811;DHT22;52468;40.116;18.296;2024-02-21T10:42:11;18.10;57.40
51811;DHT22;52468;40.116;18.296;2024-02-21T10:44:40;18.50;56.70
51811;DHT22;52468;40.116;18.296;2024-02-21T10:47:10;18.50;55.50
51811;DHT22;52468;40.116;18.296;2024-02-21T10:49:41;18.40;55.50
51811;DHT22;52468;40.116;18.296;2024-02-21T10:55:20;18.20;54.70
51811;DHT22;52468;40.116;18.296;2024-02-21T10:57:51;18.10;54.00
51811;DHT22;52468;40.116;18.296;2024-02-21T11:00:19;17.90;54.80
51811;DHT22;52468;40.116;18.296;2024-02-21T11:02:49;17.80;54.70
51811;DHT22;52468;40.116;18.296;2024-02-21T11:05:18;17.60;55.70
51811;DHT22;52468;40.116;18.296;2024-02-21T11:07:46;17.50;56.10
51811;DHT22;52468;40.116;18.296;2024-02-21T11:10:23;17.60;55.50
51811;DHT22;52468;40.116;18.296;2024-02-21T11:13:10;17.50;55.20
51811;DHT22;52468;40.116;18.296;2024-02-21T11:15:38;17.40;55.70
51811;DHT22;52468;40.116;18.296;2024-02-21T11:18:06;17.30;55.40
51811;DHT22;52468;40.116;18.296;2024-02-21T11:20:35;17.10;55.90
51811;DHT22;52468;40.116;18.296;2024-02-21T11:23:04;17.10;55.70
51811;DHT22;52468;40.116;18.296;2024-02-21T11:25:32;17.30;55.00
51811;DHT22;52468;40.116;18.296;2024-02-21T11:28:03;17.40;53.40
51811;DHT22;52468;40.116;18.296;2024-02-21T11:30:31;17.50;52.90
51811;DHT22;52468;40.116;18.296;2024-02-21T11:33:03;17.50;52.90
51811;DHT22;52468;40.116;18.296;2024-02-21T11:35:36;17.60;53.00
51811;DHT22;52468;40.116;18.296;2024-02-21T11:38:12;17.60;51.80
51811;DHT22;52468;40.116;18.296;2024-02-21T11:40:45;17.60;52.40
51811;DHT22;52468;40.116;18.296;2024-02-21T11:43:15;18.00;51.30
51811;DHT22;52468;40.116;18.296;2024-02-21T11:45:42;18.20;50.50
51811;DHT22;52468;40.116;18.296;2024-02-21T11:48:10;18.40;49.90
51811;DHT22;52468;40.116;18.296;2024-02-21T11:50:38;18.40;49.50
51811;DHT22;52468;40.116;18.296;2024-02-21T11:53:07;18.50;50.00
51811;DHT22;52468;40.116;18.296;2024-02-21T11:55:35;18.60;49.40
51811;DHT22;52468;40.116;18.296;2024-02-21T11:58:03;18.60;48.30
51811;DHT22;52468;40.116;18.296;2024-02-21T12:00:32;18.30;48.30
51811;DHT22;52468;40.116;18.296;2024-02-21T12:03:00;18.10;48.40
51811;DHT22;52468;40.116;18.296;2024-02-21T12:05:30;17.90;48.10
51811;DHT22;52468;40.116;18.296;2024-02-21T12:07:58;17.70;47.50
51811;DHT22;52468;40.116;18.296;2024-02-21T12:10:27;17.80;47.40
51811;DHT22;52468;40.116;18.296;2024-02-21T12:13:10;18.00;47.90
51811;DHT22;52468;40.116;18.296;2024-02-21T12:15:38;18.30;47.20
51811;DHT22;52468;40.116;18.296;2024-02-21T12:18:07;18.60;46.00
51811;DHT22;52468;40.116;18.296;2024-02-21T12:20:35;18.80;46.00
51811;DHT22;52468;40.116;18.296;2024-02-21T12:23:03;18.80;44.40
51811;DHT22;52468;40.116;18.296;2024-02-21T12:25:31;18.50;45.30
51811;DHT22;52468;40.116;18.296;2024-02-21T12:28:00;18.50;45.10
51811;DHT22;52468;40.116;18.296;2024-02-21T12:30:29;18.60;44.70
51811;DHT22;52468;40.116;18.296;2024-02-21T12:32:58;18.60;44.30
51811;DHT22;52468;40.116;18.296;2024-02-21T12:35:29;18.80;44.80
51811;DHT22;52468;40.116;18.296;2024-02-21T12:37:59;18.90;43.70
51811;DHT22;52468;40.116;18.296;2024-02-21T12:40:27;19.00;43.10
51811;DHT22;52468;40.116;18.296;2024-02-21T12:43:00;19.00;42.30
51811;DHT22;52468;40.116;18.296;2024-02-21T12:45:30;19.10;42.10
51811;DHT22;52468;40.116;18.296;2024-02-21T12:47:58;19.10;42.20
51811;DHT22;52468;40.116;18.296;2024-02-21T12:50:26;19.00;41.20
51811;DHT22;52468;40.116;18.296;2024-02-21T12:52:54;18.90;42.10
51811;DHT22;52468;40.116;18.296;2024-02-21T12:55:22;18.80;42.40
51811;DHT22;52468;40.116;18.296;2024-02-21T12:57:50;18.90;42.20
51811;DHT22;52468;40.116;18.296;2024-02-21T13:00:18;19.00;41.90
51811;DHT22;52468;40.116;18.296;2024-02-21T13:02:47;18.80;42.40
51811;DHT22;52468;40.116;18.296;2024-02-21T13:05:15;18.80;41.60
51811;DHT22;52468;40.116;18.296;2024-02-21T13:07:43;18.90;41.60
51811;DHT22;52468;40.116;18.296;2024-02-21T13:10:11;19.00;41.60
51811;DHT22;52468;40.116;18.296;2024-02-21T13:12:39;19.00;40.60
51811;DHT22;52468;40.116;18.296;2024-02-21T13:15:07;19.00;39.90
51811;DHT22;52468;40.116;18.296;2024-02-21T13:17:37;19.00;40.80
51811;DHT22;52468;40.116;18.296;2024-02-21T13:20:05;19.00;41.20
51811;DHT22;52468;40.116;18.296;2024-02-21T13:22:36;18.90;41.60
51811;DHT22;52468;40.116;18.296;2024-02-21T13:25:04;18.90;42.20
51811;DHT22;52468;40.116;18.296;2024-02-21T13:27:34;19.00;41.20
51811;DHT22;52468;40.116;18.296;2024-02-21T13:30:02;19.10;39.60
51811;DHT22;52468;40.116;18.296;2024-02-21T13:32:33;19.00;38.80
51811;DHT22;52468;40.116;18.296;2024-02-21T13:35:01;19.00;38.50
51811;DHT22;52468;40.116;18.296;2024-02-21T13:37:29;19.10;38.70
51811;DHT22;52468;40.116;18.296;2024-02-21T13:39:57;19.00;38.00
51811;DHT22;52468;40.116;18.296;2024-02-21T13:42:25;19.00;38.60
51811;DHT22;52468;40.116;18.296;2024-02-21T13:44:55;19.00;38.80
51811;DHT22;52468;40.116;18.296;2024-02-21T13:47:23;19.00;38.80
51811;DHT22;52468;40.116;18.296;2024-02-21T13:49:50;19.10;38.00
51811;DHT22;52468;40.116;18.296;2024-02-21T13:52:18;19.00;38.00
51811;DHT22;52468;40.116;18.296;2024-02-21T13:54:49;18.90;39.10
51811;DHT22;52468;40.116;18.296;2024-02-21T13:57:17;19.00;39.60
51811;DHT22;52468;40.116;18.296;2024-02-21T13:59:45;19.20;39.80
51811;DHT22;52468;40.116;18.296;2024-02-21T14:02:13;19.20;39.80
51811;DHT22;52468;40.116;18.296;2024-02-21T14:04:41;19.00;38.80
51811;DHT22;52468;40.116;18.296;2024-02-21T14:07:10;19.10;39.50
51811;DHT22;52468;40.116;18.296;2024-02-21T14:09:38;19.10;40.00
51811;DHT22;52468;40.116;18.296;2024-02-21T14:12:06;19.10;40.00
51811;DHT22;52468;40.116;18.296;2024-02-21T14:14:35;19.00;40.70
51811;DHT22;52468;40.116;18.296;2024-02-21T14:17:05;19.10;40.70
51811;DHT22;52468;40.116;18.296;2024-02-21T14:19:33;19.00;40.60
51811;DHT22;52468;40.116;18.296;2024-02-21T14:22:01;18.90;40.40
51811;DHT22;52468;40.116;18.296;2024-02-21T14:24:30;18.70;41.00
51811;DHT22;52468;40.116;18.296;2024-02-21T14:26:57;18.50;41.40
51811;DHT22;52468;40.116;18.296;2024-02-21T14:29:27;18.50;41.70
51811;DHT22;52468;40.116;18.296;2024-02-21T14:31:56;18.50;42.00
51811;DHT22;52468;40.116;18.296;2024-02-21T14:34:24;18.70;41.90
51811;DHT22;52468;40.116;18.296;2024-02-21T14:36:53;18.70;41.80
51811;DHT22;52468;40.116;18.296;2024-02-21T14:39:21;18.60;41.80
51811;DHT22;52468;40.116;18.296;2024-02-21T14:41:49;18.50;42.00
51811;DHT22;52468;40.116;18.296;2024-02-21T14:44:17;18.40;42.20
51811;DHT22;52468;40.116;18.296;2024-02-21T14:46:45;18.30;42.40
51811;DHT22;52468;40.116;18.296;2024-02-21T14:49:13;18.30;42.70
51811;DHT22;52468;40.116;18.296;2024-02-21T14:51:41;18.30;42.50
51811;DHT22;52468;40.116;18.296;2024-02-21T14:54:09;18.10;43.00
51811;DHT22;52468;40.116;18.296;2024-02-21T14:56:38;18.00;43.30
51811;DHT22;52468;40.116;18.296;2024-02-21T14:59:07;17.90;43.40
51811;DHT22;52468;40.116;18.296;2024-02-21T15:01:38;18.00;43.00
51811;DHT22;52468;40.116;18.296;2024-02-21T15:04:06;17.90;42.10
51811;DHT22;52468;40.116;18.296;2024-02-21T15:09:04;17.90;41.10
51811;DHT22;52468;40.116;18.296;2024-02-21T15:11:35;18.10;41.30
51811;DHT22;52468;40.116;18.296;2024-02-21T15:14:03;18.40;40.80
51811;DHT22;52468;40.116;18.296;2024-02-21T15:16:31;18.10;41.10
51811;DHT22;52468;40.116;18.296;2024-02-21T15:18:59;18.00;41.60
51811;DHT22;52468;40.116;18.296;2024-02-21T15:21:27;17.60;42.30
51811;DHT22;52468;40.116;18.296;2024-02-21T15:23:55;17.20;44.10
51811;DHT22;52468;40.116;18.296;2024-02-21T15:26:23;17.00;45.00
51811;DHT22;52468;40.116;18.296;2024-02-21T15:28:52;17.00;45.60
51811;DHT22;52468;40.116;18.296;2024-02-21T15:31:23;16.90;45.40
51811;DHT22;52468;40.116;18.296;2024-02-21T15:33:52;16.80;44.90
51811;DHT22;52468;40.116;18.296;2024-02-21T15:36:20;16.60;44.80
51811;DHT22;52468;40.116;18.296;2024-02-21T15:38:48;16.50;45.10
51811;DHT22;52468;40.116;18.296;2024-02-21T15:41:17;16.40;45.40
51811;DHT22;52468;40.116;18.296;2024-02-21T15:43:45;16.30;46.10
51811;DHT22;52468;40.116;18.296;2024-02-21T15:46:13;16.30;47.00
51811;DHT22;52468;40.116;18.296;2024-02-21T15:48:40;16.10;46.90